sensor_id;sensor_type;location;lat;lon;timestamp;pressure;altitude;pressure_sealevel;temperature;humidity
61906;BME280;47863;55.766;37.672;2023-01-27T00:01:37;100170.69;;;-2.03;82.34
61906;BME280;47863;55.766;37.672;2023-01-27T00:04:03;100160.97;;;-2.01;82.23
61906;BME280;47863;55.766;37.672;2023-01-27T00:06:29;100171.47;;;-2.01;82.19
61906;BME280;47863;55.766;37.672;2023-01-27T00:08:54;100056.50;;;-2.69;81.93
61906;BME280;47863;55.766;37.672;2023-01-27T00:11:20;100154.34;;;-2.10;82.24
61906;BME280;47863;55.766;37.672;2023-01-27T00:14:04;100161.94;;;-2.04;82.21
61906;BME280;47863;55.766;37.672;2023-01-27T00:16:29;100176.44;;;-1.95;82.18
61906;BME280;47863;55.766;37.672;2023-01-27T00:18:55;100181.63;;;-1.93;82.12
61906;BME280;47863;55.766;37.672;2023-01-27T00:21:20;100197.22;;;-1.90;82.12
61906;BME280;47863;55.766;37.672;2023-01-27T00:24:05;100116.41;;;-2.22;81.83
61906;BME280;47863;55.766;37.672;2023-01-27T00:26:49;100178.13;;;-1.94;81.89
61906;BME280;47863;55.766;37.672;2023-01-27T00:29:14;100168.75;;;-2.00;82.00
61906;BME280;47863;55.766;37.672;2023-01-27T00:31:40;100167.47;;;-2.10;81.67
61906;BME280;47863;55.766;37.672;2023-01-27T00:34:24;100177.84;;;-2.07;81.76
61906;BME280;47863;55.766;37.672;2023-01-27T00:36:50;100147.91;;;-2.22;81.87
61906;BME280;47863;55.766;37.672;2023-01-27T00:39:15;100153.94;;;-2.20;82.10
61906;BME280;47863;55.766;37.672;2023-01-27T00:41:41;100171.19;;;-2.14;81.95
61906;BME280;47863;55.766;37.672;2023-01-27T00:44:07;100164.25;;;-2.15;82.10
61906;BME280;47863;55.766;37.672;2023-01-27T00:46:37;100168.06;;;-2.22;82.40
61906;BME280;47863;55.766;37.672;2023-01-27T00:49:03;100167.50;;;-2.29;82.48
61906;BME280;47863;55.766;37.672;2023-01-27T00:51:29;100155.63;;;-2.37;82.72
61906;BME280;47863;55.766;37.672;2023-01-27T00:53:54;100161.09;;;-2.42;83.07
61906;BME280;47863;55.766;37.672;2023-01-27T00:56:20;100162.00;;;-2.43;83.23
61906;BME280;47863;55.766;37.672;2023-01-27T00:58:46;100165.56;;;-2.44;83.36
61906;BME280;47863;55.766;37.672;2023-01-27T01:01:13;100159.47;;;-2.45;83.21
61906;BME280;47863;55.766;37.672;2023-01-27T01:03:39;100155.19;;;-2.47;83.26
61906;BME280;47863;55.766;37.672;2023-01-27T01:06:08;100169.88;;;-2.43;83.29
61906;BME280;47863;55.766;37.672;2023-01-27T01:08:35;100140.69;;;-2.54;83.51
61906;BME280;47863;55.766;37.672;2023-01-27T01:11:01;100143.09;;;-2.50;83.53
61906;BME280;47863;55.766;37.672;2023-01-27T01:13:27;100150.19;;;-2.52;83.53
61906;BME280;47863;55.766;37.672;2023-01-27T01:15:53;100151.19;;;-2.54;83.43
61906;BME280;47863;55.766;37.672;2023-01-27T01:18:19;100145.84;;;-2.53;83.89
61906;BME280;47863;55.766;37.672;2023-01-27T01:20:46;100136.75;;;-2.65;83.75
61906;BME280;47863;55.766;37.672;2023-01-27T01:23:12;100144.50;;;-2.62;83.43
61906;BME280;47863;55.766;37.672;2023-01-27T01:25:39;100150.50;;;-2.60;84.12
61906;BME280;47863;55.766;37.672;2023-01-27T01:28:06;100133.06;;;-2.80;84.01
61906;BME280;47863;55.766;37.672;2023-01-27T01:30:35;100113.06;;;-2.82;83.90
61906;BME280;47863;55.766;37.672;2023-01-27T01:33:01;100158.53;;;-2.63;84.04
61906;BME280;47863;55.766;37.672;2023-01-27T01:35:27;100152.63;;;-2.68;84.17
61906;BME280;47863;55.766;37.672;2023-01-27T01:37:53;100150.06;;;-2.69;84.28
61906;BME280;47863;55.766;37.672;2023-01-27T01:40:20;100129.31;;;-2.74;84.28
61906;BME280;47863;55.766;37.672;2023-01-27T01:47:58;100127.81;;;-2.80;84.25
61906;BME280;47863;55.766;37.672;2023-01-27T01:50:25;100139.78;;;-2.74;84.34
61906;BME280;47863;55.766;37.672;2023-01-27T01:52:51;100135.94;;;-2.86;84.37
61906;BME280;47863;55.766;37.672;2023-01-27T01:55:19;100128.03;;;-2.84;84.79
61906;BME280;47863;55.766;37.672;2023-01-27T01:57:45;100145.03;;;-2.74;84.65
61906;BME280;47863;55.766;37.672;2023-01-27T02:00:11;100140.63;;;-2.73;85.04
61906;BME280;47863;55.766;37.672;2023-01-27T02:02:38;100138.34;;;-2.81;84.84
61906;BME280;47863;55.766;37.672;2023-01-27T02:05:50;100142.69;;;-2.80;84.63
61906;BME280;47863;55.766;37.672;2023-01-27T02:08:01;100143.59;;;-2.81;84.56
61906;BME280;47863;55.766;37.672;2023-01-27T02:10:31;100109.28;;;-2.95;84.76
61906;BME280;47863;55.766;37.672;2023-01-27T02:12:57;100137.44;;;-2.80;85.07
61906;BME280;47863;55.766;37.672;2023-01-27T02:15:23;100132.22;;;-2.80;84.86
61906;BME280;47863;55.766;37.672;2023-01-27T02:17:48;100122.78;;;-2.84;85.23
61906;BME280;47863;55.766;37.672;2023-01-27T02:25:52;100131.56;;;-2.85;85.18
61906;BME280;47863;55.766;37.672;2023-01-27T02:28:19;100081.56;;;-3.01;85.17
61906;BME280;47863;55.766;37.672;2023-01-27T02:30:44;100111.41;;;-2.85;85.17
61906;BME280;47863;55.766;37.672;2023-01-27T02:33:14;100110.72;;;-2.88;85.09
61906;BME280;47863;55.766;37.672;2023-01-27T02:38:26;100114.91;;;-2.84;85.07
61906;BME280;47863;55.766;37.672;2023-01-27T02:40:58;100109.28;;;-2.95;84.79
61906;BME280;47863;55.766;37.672;2023-01-27T02:43:25;100102.97;;;-2.91;85.07
61906;BME280;47863;55.766;37.672;2023-01-27T02:45:51;100106.25;;;-2.86;84.76
61906;BME280;47863;55.766;37.672;2023-01-27T02:48:16;100100.25;;;-2.88;84.73
61906;BME280;47863;55.766;37.672;2023-01-27T02:50:42;100119.09;;;-2.80;84.80
61906;BME280;47863;55.766;37.672;2023-01-27T02:53:08;100107.88;;;-2.84;84.56
61906;BME280;47863;55.766;37.672;2023-01-27T02:55:33;100117.09;;;-2.75;84.57
61906;BME280;47863;55.766;37.672;2023-01-27T02:57:59;100124.84;;;-2.72;84.41
61906;BME280;47863;55.766;37.672;2023-01-27T03:00:25;100117.88;;;-2.73;84.04
61906;BME280;47863;55.766;37.672;2023-01-27T03:02:50;100115.19;;;-2.71;83.83
61906;BME280;47863;55.766;37.672;2023-01-27T03:05:16;100111.69;;;-2.70;83.77
61906;BME280;47863;55.766;37.672;2023-01-27T03:07:41;100113.56;;;-2.74;83.73
61906;BME280;47863;55.766;37.672;2023-01-27T03:10:08;100110.16;;;-2.76;83.65
61906;BME280;47863;55.766;37.672;2023-01-27T03:12:33;100125.03;;;-2.76;83.75
61906;BME280;47863;55.766;37.672;2023-01-27T03:14:59;100112.19;;;-2.83;83.90
61906;BME280;47863;55.766;37.672;2023-01-27T03:17:43;100115.34;;;-2.74;83.71
61906;BME280;47863;55.766;37.672;2023-01-27T03:20:27;100108.72;;;-2.83;83.68
61906;BME280;47863;55.766;37.672;2023-01-27T03:22:53;100119.72;;;-2.75;83.60
61906;BME280;47863;55.766;37.672;2023-01-27T03:25:18;100116.31;;;-2.77;83.74
61906;BME280;47863;55.766;37.672;2023-01-27T03:27:44;100114.47;;;-2.75;83.55
61906;BME280;47863;55.766;37.672;2023-01-27T03:30:10;100115.53;;;-2.79;83.52
61906;BME280;47863;55.766;37.672;2023-01-27T03:32:36;100104.34;;;-2.83;83.55
61906;BME280;47863;55.766;37.672;2023-01-27T03:35:02;100117.09;;;-2.75;83.31
61906;BME280;47863;55.766;37.672;2023-01-27T03:37:30;100105.28;;;-2.84;83.45
61906;BME280;47863;55.766;37.672;2023-01-27T03:40:16;100118.88;;;-2.75;83.56
61906;BME280;47863;55.766;37.672;2023-01-27T03:43:01;100101.66;;;-2.81;83.40
61906;BME280;47863;55.766;37.672;2023-01-27T03:45:50;100107.44;;;-2.93;83.67
61906;BME280;47863;55.766;37.672;2023-01-27T03:48:35;100123.63;;;-2.84;83.56
61906;BME280;47863;55.766;37.672;2023-01-27T03:51:02;100123.63;;;-2.84;83.46
61906;BME280;47863;55.766;37.672;2023-01-27T03:53:28;100125.25;;;-2.81;83.55
61906;BME280;47863;55.766;37.672;2023-01-27T03:55:54;100115.69;;;-2.82;83.61
61906;BME280;47863;55.766;37.672;2023-01-27T03:58:22;100100.31;;;-2.90;83.51
61906;BME280;47863;55.766;37.672;2023-01-27T04:03:31;100139.97;;;-2.79;83.57
61906;BME280;47863;55.766;37.672;2023-01-27T04:06:20;100136.50;;;-2.79;83.45
61906;BME280;47863;55.766;37.672;2023-01-27T04:09:06;100117.78;;;-2.90;83.55
61906;BME280;47863;55.766;37.672;2023-01-27T04:11:32;100136.41;;;-2.76;83.70
61906;BME280;47863;55.766;37.672;2023-01-27T04:14:17;100114.31;;;-2.91;83.53
61906;BME280;47863;55.766;37.672;2023-01-27T04:16:43;100120.50;;;-2.73;83.38
61906;BME280;47863;55.766;37.672;2023-01-27T04:19:10;100136.97;;;-2.69;83.14
61906;BME280;47863;55.766;37.672;2023-01-27T04:21:36;100131.28;;;-2.79;83.00
61906;BME280;47863;55.766;37.672;2023-01-27T04:24:03;100139.38;;;-2.65;82.67
61906;BME280;47863;55.766;37.672;2023-01-27T04:26:29;100107.16;;;-2.87;82.73
61906;BME280;47863;55.766;37.672;2023-01-27T04:29:02;100129.94;;;-2.69;82.56
61906;BME280;47863;55.766;37.672;2023-01-27T04:31:28;100111.28;;;-2.82;82.87
61906;BME280;47863;55.766;37.672;2023-01-27T04:33:53;100115.03;;;-2.87;82.49
61906;BME280;47863;55.766;37.672;2023-01-27T04:36:19;100121.28;;;-2.90;82.57
61906;BME280;47863;55.766;37.672;2023-01-27T04:38:45;100086.16;;;-3.06;82.47
61906;BME280;47863;55.766;37.672;2023-01-27T04:41:11;100108.28;;;-2.93;82.65
61906;BME280;47863;55.766;37.672;2023-01-27T04:43:36;100145.88;;;-2.73;82.69
61906;BME280;47863;55.766;37.672;2023-01-27T04:46:02;100154.69;;;-2.74;82.54
61906;BME280;47863;55.766;37.672;2023-01-27T04:48:28;100147.66;;;-2.74;82.99
61906;BME280;47863;55.766;37.672;2023-01-27T04:50:53;100140.91;;;-2.80;82.92
61906;BME280;47863;55.766;37.672;2023-01-27T04:53:19;100158.94;;;-2.72;83.00
61906;BME280;47863;55.766;37.672;2023-01-27T04:55:47;100156.50;;;-2.76;83.08
61906;BME280;47863;55.766;37.672;2023-01-27T04:58:13;100144.72;;;-2.87;82.97
61906;BME280;47863;55.766;37.672;2023-01-27T05:00:39;100160.38;;;-2.85;83.19
61906;BME280;47863;55.766;37.672;2023-01-27T05:03:04;100157.25;;;-2.93;83.19
61906;BME280;47863;55.766;37.672;2023-01-27T05:05:33;100127.00;;;-3.21;83.56
61906;BME280;47863;55.766;37.672;2023-01-27T05:08:03;100128.34;;;-3.12;83.45
61906;BME280;47863;55.766;37.672;2023-01-27T05:10:28;100141.78;;;-3.00;83.53
61906;BME280;47863;55.766;37.672;2023-01-27T05:12:54;100126.59;;;-3.12;83.34
61906;BME280;47863;55.766;37.672;2023-01-27T05:15:19;100146.88;;;-2.96;83.97
61906;BME280;47863;55.766;37.672;2023-01-27T05:17:45;100157.19;;;-2.92;83.71
61906;BME280;47863;55.766;37.672;2023-01-27T05:20:11;100113.50;;;-3.12;83.64
61906;BME280;47863;55.766;37.672;2023-01-27T05:22:36;100152.06;;;-2.95;83.52
61906;BME280;47863;55.766;37.672;2023-01-27T05:25:02;100158.16;;;-2.94;83.19
61906;BME280;47863;55.766;37.672;2023-01-27T05:27:28;100168.63;;;-2.94;83.58
61906;BME280;47863;55.766;37.672;2023-01-27T05:29:54;100172.31;;;-2.99;83.20
61906;BME280;47863;55.766;37.672;2023-01-27T05:32:19;100172.47;;;-3.02;83.48
61906;BME280;47863;55.766;37.672;2023-01-27T05:34:45;100177.69;;;-3.02;83.58
61906;BME280;47863;55.766;37.672;2023-01-27T05:37:10;100166.44;;;-3.04;83.77
61906;BME280;47863;55.766;37.672;2023-01-27T05:39:36;100175.88;;;-3.00;83.71
61906;BME280;47863;55.766;37.672;2023-01-27T05:42:02;100173.97;;;-2.96;83.80
61906;BME280;47863;55.766;37.672;2023-01-27T05:44:27;100174.66;;;-2.92;83.70
61906;BME280;47863;55.766;37.672;2023-01-27T05:46:53;100184.25;;;-2.91;83.61
61906;BME280;47863;55.766;37.672;2023-01-27T05:49:18;100158.56;;;-3.04;83.43
61906;BME280;47863;55.766;37.672;2023-01-27T05:51:44;100178.06;;;-2.90;83.56
61906;BME280;47863;55.766;37.672;2023-01-27T05:54:09;100164.31;;;-2.95;83.11
61906;BME280;47863;55.766;37.672;2023-01-27T05:56:35;100181.94;;;-2.79;83.29
61906;BME280;47863;55.766;37.672;2023-01-27T05:59:01;100142.38;;;-2.93;83.29
61906;BME280;47863;55.766;37.672;2023-01-27T06:01:31;100184.88;;;-2.66;83.40
61906;BME280;47863;55.766;37.672;2023-01-27T06:03:57;100161.75;;;-2.76;83.02
61906;BME280;47863;55.766;37.672;2023-01-27T06:06:25;100158.75;;;-2.88;83.25
61906;BME280;47863;55.766;37.672;2023-01-27T06:08:50;100186.47;;;-2.82;83.05
61906;BME280;47863;55.766;37.672;2023-01-27T06:11:17;100195.72;;;-2.73;83.37
61906;BME280;47863;55.766;37.672;2023-01-27T06:13:44;100171.72;;;-2.85;82.98
61906;BME280;47863;55.766;37.672;2023-01-27T06:16:12;100171.19;;;-2.93;83.28
61906;BME280;47863;55.766;37.672;2023-01-27T06:18:38;100181.28;;;-2.84;83.07
61906;BME280;47863;55.766;37.672;2023-01-27T06:21:06;100194.97;;;-2.77;83.20
61906;BME280;47863;55.766;37.672;2023-01-27T06:23:32;100193.16;;;-2.75;83.22
61906;BME280;47863;55.766;37.672;2023-01-27T06:26:09;100195.72;;;-2.73;83.32
61906;BME280;47863;55.766;37.672;2023-01-27T06:28:35;100198.22;;;-2.70;83.37
61906;BME280;47863;55.766;37.672;2023-01-27T06:31:05;100194.44;;;-2.65;83.17
61906;BME280;47863;55.766;37.672;2023-01-27T06:33:31;100175.72;;;-2.76;83.24
61906;BME280;47863;55.766;37.672;2023-01-27T06:36:01;100191.69;;;-2.62;83.01
61906;BME280;47863;55.766;37.672;2023-01-27T06:38:28;100154.25;;;-2.84;83.18
61906;BME280;47863;55.766;37.672;2023-01-27T06:40:53;100193.81;;;-2.51;83.32
61906;BME280;47863;55.766;37.672;2023-01-27T06:43:19;100196.25;;;-2.46;82.91
61906;BME280;47863;55.766;37.672;2023-01-27T06:45:44;100188.59;;;-2.51;82.88
61906;BME280;47863;55.766;37.672;2023-01-27T06:48:10;100192.59;;;-2.42;82.43
61906;BME280;47863;55.766;37.672;2023-01-27T06:50:35;100185.91;;;-2.49;82.25
61906;BME280;47863;55.766;37.672;2023-01-27T06:53:03;100191.16;;;-2.49;82.22
61906;BME280;47863;55.766;37.672;2023-01-27T06:55:30;100199.78;;;-2.47;82.58
61906;BME280;47863;55.766;37.672;2023-01-27T06:57:55;100199.69;;;-2.44;82.46
61906;BME280;47863;55.766;37.672;2023-01-27T07:00:21;100175.72;;;-2.76;82.41
61906;BME280;47863;55.766;37.672;2023-01-27T07:02:47;100209.50;;;-2.49;82.45
61906;BME280;47863;55.766;37.672;2023-01-27T07:05:13;100204.97;;;-2.46;82.30
61906;BME280;47863;55.766;37.672;2023-01-27T07:07:39;100208.31;;;-2.42;82.43
61906;BME280;47863;55.766;37.672;2023-01-27T07:10:06;100199.53;;;-2.41;82.44
61906;BME280;47863;55.766;37.672;2023-01-27T07:12:32;100194.28;;;-2.41;82.13
61906;BME280;47863;55.766;37.672;2023-01-27T07:15:06;100160.28;;;-2.63;82.16
61906;BME280;47863;55.766;37.672;2023-01-27T07:17:32;100215.63;;;-2.30;81.83
61906;BME280;47863;55.766;37.672;2023-01-27T07:19:58;100173.00;;;-2.54;81.31
61906;BME280;47863;55.766;37.672;2023-01-27T07:22:25;100188.47;;;-2.48;81.51
61906;BME280;47863;55.766;37.672;2023-01-27T07:24:50;100215.41;;;-2.25;82.14
61906;BME280;47863;55.766;37.672;2023-01-27T07:27:16;100206.72;;;-2.26;81.89
61906;BME280;47863;55.766;37.672;2023-01-27T07:29:42;100221.25;;;-2.18;81.85
61906;BME280;47863;55.766;37.672;2023-01-27T07:32:08;100193.03;;;-2.32;81.95
61906;BME280;47863;55.766;37.672;2023-01-27T07:34:34;100189.00;;;-2.21;81.55
61906;BME280;47863;55.766;37.672;2023-01-27T07:36:59;100210.53;;;-2.14;81.46
61906;BME280;47863;55.766;37.672;2023-01-27T07:39:25;100221.63;;;-2.07;81.49
61906;BME280;47863;55.766;37.672;2023-01-27T07:41:51;100204.81;;;-2.22;81.58
61906;BME280;47863;55.766;37.672;2023-01-27T07:44:17;100203.91;;;-2.21;81.58
61906;BME280;47863;55.766;37.672;2023-01-27T07:46:43;100236.16;;;-2.00;80.85
61906;BME280;47863;55.766;37.672;2023-01-27T07:49:09;100227.66;;;-2.05;80.98
61906;BME280;47863;55.766;37.672;2023-01-27T07:51:36;100234.53;;;-2.03;81.11
61906;BME280;47863;55.766;37.672;2023-01-27T07:54:03;100232.13;;;-2.07;80.80
61906;BME280;47863;55.766;37.672;2023-01-27T07:56:29;100184.31;;;-2.33;80.84
61906;BME280;47863;55.766;37.672;2023-01-27T07:58:54;100205.75;;;-2.23;81.00
61906;BME280;47863;55.766;37.672;2023-01-27T08:01:20;100243.84;;;-1.95;80.60
61906;BME280;47863;55.766;37.672;2023-01-27T08:03:46;100232.63;;;-1.99;80.53
61906;BME280;47863;55.766;37.672;2023-01-27T08:06:11;100222.13;;;-1.99;80.71
61906;BME280;47863;55.766;37.672;2023-01-27T08:08:37;100237.97;;;-1.82;81.04
61906;BME280;47863;55.766;37.672;2023-01-27T08:11:05;100256.13;;;-1.77;80.08
61906;BME280;47863;55.766;37.672;2023-01-27T08:13:33;100227.53;;;-1.83;79.37
61906;BME280;47863;55.766;37.672;2023-01-27T08:16:01;100241.00;;;-1.91;79.32
61906;BME280;47863;55.766;37.672;2023-01-27T08:18:28;100234.19;;;-1.95;79.11
61906;BME280;47863;55.766;37.672;2023-01-27T08:20:54;100243.63;;;-1.91;79.62
61906;BME280;47863;55.766;37.672;2023-01-27T08:23:23;100223.81;;;-1.98;79.99
61906;BME280;47863;55.766;37.672;2023-01-27T08:25:53;100209.00;;;-1.99;79.86
61906;BME280;47863;55.766;37.672;2023-01-27T08:28:20;100182.53;;;-2.13;79.25
61906;BME280;47863;55.766;37.672;2023-01-27T08:30:46;100244.69;;;-1.76;79.11
61906;BME280;47863;55.766;37.672;2023-01-27T08:33:12;100236.31;;;-1.84;78.69
61906;BME280;47863;55.766;37.672;2023-01-27T08:35:38;100232.91;;;-1.86;78.76
61906;BME280;47863;55.766;37.672;2023-01-27T08:38:12;100242.94;;;-1.75;78.59
61906;BME280;47863;55.766;37.672;2023-01-27T08:40:39;100243.69;;;-1.73;78.61
61906;BME280;47863;55.766;37.672;2023-01-27T08:43:05;100193.03;;;-1.94;78.88
61906;BME280;47863;55.766;37.672;2023-01-27T08:45:31;100244.97;;;-1.63;79.24
61906;BME280;47863;55.766;37.672;2023-01-27T08:47:57;100217.91;;;-1.65;79.41
61906;BME280;47863;55.766;37.672;2023-01-27T08:50:23;100223.22;;;-1.48;79.63
61906;BME280;47863;55.766;37.672;2023-01-27T08:52:48;100228.00;;;-1.38;79.44
61906;BME280;47863;55.766;37.672;2023-01-27T08:55:14;100235.91;;;-1.38;79.16
61906;BME280;47863;55.766;37.672;2023-01-27T08:57:40;100230.50;;;-1.35;79.45
61906;BME280;47863;55.766;37.672;2023-01-27T09:00:08;100229.13;;;-1.25;79.30
61906;BME280;47863;55.766;37.672;2023-01-27T09:02:34;100238.97;;;-1.11;79.55
61906;BME280;47863;55.766;37.672;2023-01-27T09:05:00;100245.69;;;-1.06;79.51
61906;BME280;47863;55.766;37.672;2023-01-27T09:07:25;100234.41;;;-1.08;78.51
61906;BME280;47863;55.766;37.672;2023-01-27T09:09:51;100219.84;;;-1.15;78.18
61906;BME280;47863;55.766;37.672;2023-01-27T09:12:16;100238.28;;;-0.97;77.81
61906;BME280;47863;55.766;37.672;2023-01-27T09:14:42;100221.91;;;-1.03;78.12
61906;BME280;47863;55.766;37.672;2023-01-27T09:17:07;100238.84;;;-0.91;78.32
61906;BME280;47863;55.766;37.672;2023-01-27T09:19:33;100230.31;;;-0.96;77.58
61906;BME280;47863;55.766;37.672;2023-01-27T09:21:58;100237.06;;;-0.90;78.25
61906;BME280;47863;55.766;37.672;2023-01-27T09:24:24;100226.84;;;-0.96;77.31
61906;BME280;47863;55.766;37.672;2023-01-27T09:26:50;100241.38;;;-0.89;77.64
61906;BME280;47863;55.766;37.672;2023-01-27T09:29:15;100225.28;;;-1.01;77.81
61906;BME280;47863;55.766;37.672;2023-01-27T09:31:41;100247.50;;;-0.89;77.91
61906;BME280;47863;55.766;37.672;2023-01-27T09:34:06;100231.16;;;-0.95;77.96
61906;BME280;47863;55.766;37.672;2023-01-27T09:36:38;100206.94;;;-1.20;77.39
61906;BME280;47863;55.766;37.672;2023-01-27T09:39:07;100248.97;;;-1.01;77.61
61906;BME280;47863;55.766;37.672;2023-01-27T09:53:00;100240.47;;;-1.25;77.42
61906;BME280;47863;55.766;37.672;2023-01-27T10:01:21;100243.41;;;-0.94;78.26
61906;BME280;47863;55.766;37.672;2023-01-27T10:07:01;100233.66;;;-0.75;78.07
61906;BME280;47863;55.766;37.672;2023-01-27T10:09:32;100244.78;;;-0.70;78.62
61906;BME280;47863;55.766;37.672;2023-01-27T10:18:19;100237.19;;;-0.58;77.93
61906;BME280;47863;55.766;37.672;2023-01-27T10:20:57;100241.22;;;-0.69;77.72
61906;BME280;47863;55.766;37.672;2023-01-27T10:26:40;100232.56;;;-0.71;77.82
61906;BME280;47863;55.766;37.672;2023-01-27T10:31:55;100233.78;;;-0.78;77.75
61906;BME280;47863;55.766;37.672;2023-01-27T10:34:33;100240.91;;;-0.80;77.50
61906;BME280;47863;55.766;37.672;2023-01-27T10:50:16;100212.59;;;-0.92;78.05
61906;BME280;47863;55.766;37.672;2023-01-27T10:53:00;100249.19;;;-0.70;77.63
61906;BME280;47863;55.766;37.672;2023-01-27T10:55:36;100262.47;;;-0.73;77.79
61906;BME280;47863;55.766;37.672;2023-01-27T10:58:30;100255.53;;;-0.74;78.34
61906;BME280;47863;55.766;37.672;2023-01-27T11:01:01;100260.47;;;-0.68;78.55
61906;BME280;47863;55.766;37.672;2023-01-27T11:03:40;100255.91;;;-0.65;78.59
61906;BME280;47863;55.766;37.672;2023-01-27T11:06:24;100237.81;;;-0.71;78.43
61906;BME280;47863;55.766;37.672;2023-01-27T11:09:23;100272.00;;;-0.53;78.66
61906;BME280;47863;55.766;37.672;2023-01-27T11:11:47;100263.09;;;-0.51;78.37
61906;BME280;47863;55.766;37.672;2023-01-27T11:14:25;100225.97;;;-0.62;78.72
61906;BME280;47863;55.766;37.672;2023-01-27T11:17:03;100259.22;;;-0.44;78.92
61906;BME280;47863;55.766;37.672;2023-01-27T11:22:23;100263.63;;;-0.44;78.48
61906;BME280;47863;55.766;37.672;2023-01-27T11:28:05;100251.97;;;-0.56;78.92
61906;BME280;47863;55.766;37.672;2023-01-27T11:30:51;100230.06;;;-0.56;79.04
61906;BME280;47863;55.766;37.672;2023-01-27T11:33:31;100211.28;;;-0.66;78.83
61906;BME280;47863;55.766;37.672;2023-01-27T11:35:58;100240.56;;;-0.39;78.97
61906;BME280;47863;55.766;37.672;2023-01-27T11:38:24;100233.06;;;-0.47;78.82
61906;BME280;47863;55.766;37.672;2023-01-27T11:40:52;100252.00;;;-0.40;78.65
61906;BME280;47863;55.766;37.672;2023-01-27T11:43:21;100245.97;;;-0.42;79.11
61906;BME280;47863;55.766;37.672;2023-01-27T11:45:49;100249.22;;;-0.37;79.10
61906;BME280;47863;55.766;37.672;2023-01-27T11:48:18;100256.81;;;-0.31;79.30
61906;BME280;47863;55.766;37.672;2023-01-27T11:50:44;100261.75;;;-0.25;78.79
61906;BME280;47863;55.766;37.672;2023-01-27T11:53:27;100259.09;;;-0.25;78.81
61906;BME280;47863;55.766;37.672;2023-01-27T11:56:03;100261.66;;;-0.23;79.32
61906;BME280;47863;55.766;37.672;2023-01-27T11:58:35;100261.75;;;-0.25;78.84
61906;BME280;47863;55.766;37.672;2023-01-27T12:01:10;100261.81;;;-0.26;78.75
61906;BME280;47863;55.766;37.672;2023-01-27T12:03:58;100273.22;;;-0.26;79.05
61906;BME280;47863;55.766;37.672;2023-01-27T12:06:45;100235.00;;;-0.50;78.27
61906;BME280;47863;55.766;37.672;2023-01-27T12:09:35;100232.50;;;-0.53;78.92
61906;BME280;47863;55.766;37.672;2023-01-27T12:14:52;100264.22;;;-0.22;78.97
61906;BME280;47863;55.766;37.672;2023-01-27T12:17:29;100269.63;;;-0.25;78.73
61906;BME280;47863;55.766;37.672;2023-01-27T12:19:59;100248.00;;;-0.47;78.75
61906;BME280;47863;55.766;37.672;2023-01-27T12:22:31;100266.44;;;-0.47;78.47
61906;BME280;47863;55.766;37.672;2023-01-27T12:25:00;100262.34;;;-0.70;78.98
61906;BME280;47863;55.766;37.672;2023-01-27T12:27:31;100232.63;;;-0.90;78.50
61906;BME280;47863;55.766;37.672;2023-01-27T12:30:04;100284.22;;;-0.70;78.57
61906;BME280;47863;55.766;37.672;2023-01-27T12:32:38;100274.88;;;-0.75;78.60
61906;BME280;47863;55.766;37.672;2023-01-27T12:35:05;100277.50;;;-0.75;78.58
61906;BME280;47863;55.766;37.672;2023-01-27T12:37:36;100262.41;;;-0.89;78.79
61906;BME280;47863;55.766;37.672;2023-01-27T12:40:05;100277.75;;;-0.80;78.39
61906;BME280;47863;55.766;37.672;2023-01-27T12:42:46;100284.00;;;-0.83;78.93
61906;BME280;47863;55.766;37.672;2023-01-27T12:46:01;100292.09;;;-0.87;78.48
61906;BME280;47863;55.766;37.672;2023-01-27T12:48:14;100292.34;;;-0.92;78.84
61906;BME280;47863;55.766;37.672;2023-01-27T12:53:25;100297.69;;;-0.93;78.85
61906;BME280;47863;55.766;37.672;2023-01-27T12:56:10;100300.25;;;-0.92;78.99
61906;BME280;47863;55.766;37.672;2023-01-27T13:03:55;100272.69;;;-1.02;78.68
61906;BME280;47863;55.766;37.672;2023-01-27T13:06:47;100303.88;;;-0.94;78.76
61906;BME280;47863;55.766;37.672;2023-01-27T13:11:47;100291.53;;;-1.11;78.83
61906;BME280;47863;55.766;37.672;2023-01-27T13:14:15;100221.50;;;-1.49;78.93
61906;BME280;47863;55.766;37.672;2023-01-27T13:16:49;100288.97;;;-1.13;78.81
61906;BME280;47863;55.766;37.672;2023-01-27T13:19:16;100293.47;;;-1.15;79.12
61906;BME280;47863;55.766;37.672;2023-01-27T13:21:45;100300.44;;;-1.14;79.37
61906;BME280;47863;55.766;37.672;2023-01-27T13:24:17;100307.38;;;-1.13;nan
61906;BME280;47863;55.766;37.672;2023-01-27T13:26:46;100305.41;;;-1.08;79.50
61906;BME280;47863;55.766;37.672;2023-01-27T13:29:23;100300.00;;;-1.05;79.29
61906;BME280;47863;55.766;37.672;2023-01-27T13:32:18;100313.81;;;-1.01;79.28
61906;BME280;47863;55.766;37.672;2023-01-27T13:34:52;100290.75;;;-1.13;79.26
61906;BME280;47863;55.766;37.672;2023-01-27T13:40:02;100315.38;;;-0.97;79.32
61906;BME280;47863;55.766;37.672;2023-01-27T13:42:50;100318.50;;;-0.89;79.36
61906;BME280;47863;55.766;37.672;2023-01-27T13:45:39;100320.72;;;-0.81;79.88
61906;BME280;47863;55.766;37.672;2023-01-27T13:50:49;100312.41;;;-0.72;79.27
61906;BME280;47863;55.766;37.672;2023-01-27T13:53:19;100291.81;;;-0.81;79.28
61906;BME280;47863;55.766;37.672;2023-01-27T14:03:52;100334.75;;;-0.81;79.41
61906;BME280;47863;55.766;37.672;2023-01-27T14:09:08;100321.69;;;-0.82;79.19
61906;BME280;47863;55.766;37.672;2023-01-27T14:11:46;100332.50;;;-0.88;79.22
61906;BME280;47863;55.766;37.672;2023-01-27T14:22:21;100340.91;;;-0.99;79.69
61906;BME280;47863;55.766;37.672;2023-01-27T14:25:24;100346.38;;;-1.04;79.45
61906;BME280;47863;55.766;37.672;2023-01-27T14:27:58;100345.47;;;-1.03;79.60
61906;BME280;47863;55.766;37.672;2023-01-27T14:30:29;100288.56;;;-1.40;79.34
61906;BME280;47863;55.766;37.672;2023-01-27T14:33:23;100342.22;;;-1.08;79.62
61906;BME280;47863;55.766;37.672;2023-01-27T14:36:11;100356.59;;;-0.97;79.95
61906;BME280;47863;55.766;37.672;2023-01-27T14:38:48;100359.72;;;-0.89;80.07